Time;durP1;ratioP1;P1;durP2;ratioP2;P2;SDS_P1;SDS_P2;PMS_P1;PMS_P2;Temp;Humidity;BMP_temperature;BMP_pressure;BME280_temperature;BME280_humidity;BME280_pressure;Samples;Min_cycle;Max_cycle;Signal;HPM_P1;HPM_P2
2023/07/24 00:02:14;;;;;;;0.00;0.00;;;;;;;15.67;84.46;100243.03;7353248;19;20070;-64
2023/07/24 00:04:39;;;;;;;0.00;0.00;;;;;;;15.64;84.80;100243.19;7352284;19;20018;-64
2023/07/24 00:07:05;;;;;;;0.10;0.10;;;;;;;15.60;84.56;100246.88;7351544;19;20026;-63
2023/07/24 00:09:31;;;;;;;0.08;0.08;;;;;;;15.57;84.99;100250.53;7350676;19;21386;-64
2023/07/24 00:11:56;;;;;;;0.00;0.00;;;;;;;15.54;84.70;100247.19;7353654;19;20081;-64
2023/07/24 00:14:22;;;;;;;0.10;0.10;;;;;;;15.50;84.57;100245.63;7352289;19;20002;-62
2023/07/24 00:16:47;;;;;;;0.00;0.00;;;;;;;15.46;84.90;100244.94;7351579;19;20042;-63
2023/07/24 00:19:12;;;;;;;0.10;0.10;;;;;;;15.44;84.64;100245.94;7350570;19;20018;-64
2023/07/24 00:21:38;;;;;;;0.00;0.00;;;;;;;15.41;85.01;100253.97;7354606;19;20517;-64
2023/07/24 00:24:04;;;;;;;0.10;0.10;;;;;;;15.37;84.84;100260.34;7350139;19;20911;-62
2023/07/24 00:26:29;;;;;;;0.05;0.05;;;;;;;15.35;85.14;100251.66;7348937;19;20026;-63
2023/07/24 00:28:54;;;;;;;0.10;0.10;;;;;;;15.31;84.92;100264.97;7347817;19;20017;-63
2023/07/24 00:31:20;;;;;;;0.00;0.00;;;;;;;15.28;84.99;100253.75;7354259;19;20006;-63
2023/07/24 00:33:45;;;;;;;0.00;0.00;;;;;;;15.19;84.72;100249.78;7353243;19;20014;-63
2023/07/24 00:36:11;;;;;;;0.00;0.00;;;;;;;15.07;84.96;100237.25;7355488;19;20037;-61
2023/07/24 00:38:36;;;;;;;0.10;0.10;;;;;;;15.19;84.64;100268.19;7350515;19;20405;-64
2023/07/24 00:41:01;;;;;;;0.10;0.10;;;;;;;15.13;84.87;100257.97;7354103;19;20117;-62
2023/07/24 00:43:27;;;;;;;0.00;0.00;;;;;;;15.14;84.79;100270.19;7352590;19;20014;-64
2023/07/24 00:45:55;;;;;;;0.00;0.00;;;;;;;15.12;84.74;100266.81;7355931;19;20034;-62
2023/07/24 00:48:21;;;;;;;0.10;0.10;;;;;;;15.08;85.13;100267.88;7349217;19;20011;-62
2023/07/24 00:50:47;;;;;;;0.00;0.00;;;;;;;15.07;84.81;100268.81;7353524;19;20010;-64
2023/07/24 00:53:14;;;;;;;0.00;0.00;;;;;;;15.02;84.70;100265.53;7347032;19;20018;-62
2023/07/24 00:55:40;;;;;;;0.03;0.03;;;;;;;14.99;84.88;100274.41;7353331;19;20029;-63
2023/07/24 00:58:06;;;;;;;0.05;0.05;;;;;;;14.96;84.90;100274.56;7350363;19;20470;-64
2023/07/24 01:00:32;;;;;;;0.00;0.00;;;;;;;14.93;84.83;100268.59;7354403;19;20090;-64
2023/07/24 01:02:59;;;;;;;0.00;0.00;;;;;;;14.92;84.94;100266.91;7350570;19;20375;-63
2023/07/24 01:05:25;;;;;;;0.08;0.08;;;;;;;14.90;85.29;100263.47;7353610;19;20007;-64
2023/07/24 01:07:52;;;;;;;0.00;0.00;;;;;;;14.85;85.14;100268.09;7350273;19;20011;-63
2023/07/24 01:10:17;;;;;;;0.03;0.03;;;;;;;14.85;85.28;100268.09;7352065;19;20006;-64
2023/07/24 01:13:02;;;;;;;0.00;0.00;;;;;;;14.84;84.78;100266.41;7348756;19;20011;-64
2023/07/24 01:15:35;;;;;;;0.00;0.00;;;;;;;14.81;85.00;100271.81;7352423;19;20018;-63
2023/07/24 01:18:07;;;;;;;0.10;0.10;;;;;;;14.78;84.82;100271.03;7347884;19;20406;-64
2023/07/24 01:20:36;;;;;;;0.00;0.00;;;;;;;14.76;84.99;100270.25;7350830;19;20037;-63
2023/07/24 01:23:21;;;;;;;0.00;0.00;;;;;;;14.75;84.63;100271.19;7352170;19;20014;-64
2023/07/24 01:25:54;;;;;;;0.00;0.00;;;;;;;14.73;84.60;100270.38;7351223;19;20010;-63
2023/07/24 01:28:19;;;;;;;0.00;0.00;;;;;;;14.61;85.17;100260.47;7354113;19;20121;-62
2023/07/24 01:30:45;;;;;;;0.00;0.00;;;;;;;14.68;85.18;100274.16;7352913;19;20053;-63
2023/07/24 01:33:11;;;;;;;0.00;0.00;;;;;;;14.66;85.44;100279.50;7351921;19;20600;-64
2023/07/24 01:35:38;;;;;;;0.00;0.00;;;;;;;14.63;85.62;100274.38;7353590;19;20715;-64
2023/07/24 01:38:04;;;;;;;0.10;0.10;;;;;;;14.65;85.35;100284.78;7345577;19;20026;-62
2023/07/24 01:40:31;;;;;;;0.10;0.10;;;;;;;14.64;85.49;100283.94;7353578;19;21836;-64
2023/07/24 01:42:59;;;;;;;0.10;0.10;;;;;;;14.63;85.23;100277.00;7348251;19;20006;-64
2023/07/24 01:45:24;;;;;;;0.00;0.00;;;;;;;14.46;85.39;100256.72;7352321;19;20038;-64
2023/07/24 01:47:50;;;;;;;0.00;0.00;;;;;;;14.63;85.55;100284.88;7351919;19;20014;-63
2023/07/24 01:50:15;;;;;;;0.10;0.10;;;;;;;14.60;85.49;100285.03;7351680;19;20608;-64
2023/07/24 01:52:41;;;;;;;0.10;0.10;;;;;;;14.61;85.42;100286.72;7350939;19;20010;-63
2023/07/24 01:55:07;;;;;;;0.00;0.00;;;;;;;14.48;85.31;100269.81;7352684;19;20033;-63
2023/07/24 01:57:32;;;;;;;0.00;0.00;;;;;;;14.59;85.32;100285.94;7349064;19;20050;-63
2023/07/24 01:59:57;;;;;;;0.03;0.03;;;;;;;14.44;85.08;100290.06;7347863;19;20042;-62
2023/07/24 02:02:23;;;;;;;0.10;0.10;;;;;;;14.56;84.86;100299.22;7354079;19;20477;-62
2023/07/24 02:04:48;;;;;;;0.10;0.10;;;;;;;14.53;84.76;100299.34;7350211;19;20045;-64
2023/07/24 02:07:13;;;;;;;0.00;0.00;;;;;;;14.52;85.13;100305.53;7349666;19;20034;-62
2023/07/24 02:09:39;;;;;;;0.10;0.10;;;;;;;14.49;85.03;100298.63;7349005;19;20014;-63
2023/07/24 02:12:05;;;;;;;0.10;0.10;;;;;;;14.47;84.65;100302.25;7353089;19;20683;-64
2023/07/24 02:14:30;;;;;;;0.10;0.10;;;;;;;14.44;84.93;100302.38;7350592;19;20809;-64
2023/07/24 02:16:56;;;;;;;0.08;0.08;;;;;;;14.41;84.74;100299.91;7356768;19;20106;-63
2023/07/24 02:19:21;;;;;;;0.00;0.00;;;;;;;14.39;85.06;100304.34;7359634;19;20014;-64
2023/07/24 02:21:47;;;;;;;0.10;0.10;;;;;;;14.35;84.86;100301.03;7360126;19;20098;-62
2023/07/24 02:24:12;;;;;;;0.00;0.00;;;;;;;14.33;85.04;100302.84;7356783;19;20009;-62
2023/07/24 02:26:37;;;;;;;0.10;0.10;;;;;;;14.32;84.98;100301.16;7360356;19;20017;-64
2023/07/24 02:29:03;;;;;;;0.00;0.00;;;;;;;14.31;85.10;100306.47;7357827;19;20013;-64
2023/07/24 02:31:28;;;;;;;0.10;0.10;;;;;;;14.27;84.85;100303.97;7355934;19;20063;-60
2023/07/24 02:33:53;;;;;;;0.00;0.00;;;;;;;14.26;84.88;100302.28;7359084;19;20461;-63
2023/07/24 02:36:19;;;;;;;0.00;0.00;;;;;;;14.24;84.88;100312.00;7354857;19;20034;-62
2023/07/24 02:38:45;;;;;;;0.00;0.00;;;;;;;14.23;84.84;100315.53;7354261;19;20010;-63
2023/07/24 02:41:10;;;;;;;0.10;0.10;;;;;;;14.15;85.26;100309.78;7352176;19;20019;-61
2023/07/24 02:43:36;;;;;;;0.00;0.00;;;;;;;14.21;85.04;100325.25;7359129;19;20011;-64
2023/07/24 02:46:02;;;;;;;0.00;0.00;;;;;;;14.19;84.85;100326.22;7358414;19;20905;-64
2023/07/24 02:48:28;;;;;;;0.10;0.10;;;;;;;14.06;85.02;100301.44;7354020;19;20024;-64
2023/07/24 02:50:54;;;;;;;0.10;0.10;;;;;;;14.16;84.73;100319.34;7359274;19;20022;-62
2023/07/24 02:53:19;;;;;;;0.10;0.10;;;;;;;14.14;85.20;100315.06;7358296;19;20844;-64
2023/07/24 02:55:45;;;;;;;0.10;0.10;;;;;;;14.12;85.27;100315.16;7353410;19;20007;-62
2023/07/24 02:58:12;;;;;;;0.10;0.10;;;;;;;14.11;85.31;100318.72;7358748;19;20025;-62
2023/07/24 03:00:38;;;;;;;0.10;0.10;;;;;;;14.09;85.36;100320.56;7359499;19;20033;-62
2023/07/24 03:03:03;;;;;;;0.10;0.10;;;;;;;14.07;85.33;100330.25;7358306;19;20014;-64
2023/07/24 03:05:29;;;;;;;0.10;0.10;;;;;;;14.07;85.02;100321.53;7355310;19;20478;-64
2023/07/24 03:07:54;;;;;;;0.00;0.00;;;;;;;14.06;84.98;100322.44;7355830;19;20010;-62
2023/07/24 03:10:19;;;;;;;0.10;0.10;;;;;;;14.04;84.74;100327.78;7359043;19;21316;-63
2023/07/24 03:12:45;;;;;;;0.10;0.10;;;;;;;14.02;85.08;100319.94;7357784;19;20010;-62
2023/07/24 03:15:10;;;;;;;0.00;0.00;;;;;;;14.02;84.86;100329.59;7361057;19;20014;-64
2023/07/24 03:17:36;;;;;;;0.10;0.10;;;;;;;13.99;84.99;100327.13;7356937;19;20014;-64
2023/07/24 03:20:27;;;;;;;0.10;0.10;;;;;;;14.00;84.21;100320.94;7335599;19;20022;-63
2023/07/24 03:22:53;;;;;;;0.10;0.10;;;;;;;13.94;84.56;100323.84;7253350;19;2004308;-63
2023/07/24 03:25:18;;;;;;;0.10;0.10;;;;;;;13.93;84.81;100324.72;7358754;19;20350;-61
2023/07/24 03:27:44;;;;;;;0.10;0.10;;;;;;;13.86;84.91;100320.66;7350122;19;20022;-64
2023/07/24 03:30:09;;;;;;;0.00;0.00;;;;;;;13.89;84.99;100328.41;7359334;19;20026;-63
2023/07/24 03:32:37;;;;;;;0.00;0.00;;;;;;;13.80;85.04;100323.56;7359413;19;20023;-61
2023/07/24 03:35:03;;;;;;;0.10;0.10;;;;;;;13.86;85.26;100334.66;7361542;19;20077;-63
2023/07/24 03:37:29;;;;;;;0.10;0.10;;;;;;;13.86;85.48;100333.81;7356643;19;20038;-63
2023/07/24 03:39:54;;;;;;;0.10;0.10;;;;;;;13.86;85.65;100328.56;7354815;19;20844;-62
2023/07/24 03:42:31;;;;;;;0.00;0.00;;;;;;;13.89;85.23;100329.28;7358209;19;20006;-63
2023/07/24 03:44:57;;;;;;;0.10;0.10;;;;;;;13.90;85.53;100333.59;7360839;19;20044;-62
2023/07/24 03:47:23;;;;;;;0.10;0.10;;;;;;;13.92;85.87;100341.41;7350035;19;20374;-61
2023/07/24 03:49:50;;;;;;;0.10;0.10;;;;;;;13.94;85.66;100350.09;7359090;19;20011;-63
2023/07/24 03:52:15;;;;;;;0.00;0.00;;;;;;;13.96;85.66;100349.09;7355325;19;20097;-62
2023/07/24 03:54:41;;;;;;;0.10;0.10;;;;;;;13.99;85.70;100356.00;7357675;19;20086;-63
2023/07/24 03:57:06;;;;;;;0.10;0.10;;;;;;;14.02;85.94;100363.72;7358642;19;20573;-62
2023/07/24 03:59:32;;;;;;;0.10;0.10;;;;;;;14.05;85.98;100355.72;7355623;19;20433;-63
2023/07/24 04:01:58;;;;;;;0.03;0.03;;;;;;;14.09;85.82;100354.69;7358276;19;20057;-63
2023/07/24 04:04:23;;;;;;;0.00;0.00;;;;;;;14.11;86.06;100360.72;7359512;19;20070;-63
2023/07/24 04:06:49;;;;;;;0.00;0.00;;;;;;;14.00;85.90;100347.19;7358797;19;20099;-64
2023/07/24 04:09:14;;;;;;;0.03;0.03;;;;;;;14.17;85.71;100360.44;7356441;19;20014;-64
2023/07/24 04:11:43;;;;;;;0.08;0.08;;;;;;;14.19;85.47;100355.13;7357412;19;20014;-62
2023/07/24 04:14:09;;;;;;;0.10;0.10;;;;;;;14.20;85.47;100359.47;7359885;19;20133;-63
2023/07/24 04:16:35;;;;;;;0.10;0.10;;;;;;;14.22;85.69;100374.22;7353118;19;20094;-64
2023/07/24 04:19:00;;;;;;;0.10;0.10;;;;;;;14.23;85.17;100373.31;7356225;19;20020;-63
2023/07/24 04:21:26;;;;;;;0.10;0.10;;;;;;;14.25;85.26;100368.00;7356639;19;20073;-63
2023/07/24 04:23:51;;;;;;;0.00;0.00;;;;;;;14.26;85.42;100374.97;7355353;19;20014;-63
2023/07/24 04:26:16;;;;;;;0.10;0.10;;;;;;;14.27;85.50;100377.50;7357006;19;20499;-63
2023/07/24 04:28:42;;;;;;;0.00;0.00;;;;;;;14.29;85.14;100382.69;7355565;19;20032;-60
2023/07/24 04:31:07;;;;;;;0.03;0.03;;;;;;;14.31;85.22;100378.25;7357202;19;20010;-63
2023/07/24 04:33:33;;;;;;;0.10;0.10;;;;;;;14.30;85.18;100370.44;7357812;19;20006;-63
2023/07/24 04:35:58;;;;;;;0.10;0.10;;;;;;;14.24;85.36;100372.41;7353868;19;20473;-64
2023/07/24 04:38:24;;;;;;;0.10;0.10;;;;;;;14.36;85.39;100381.53;7357424;19;20026;-62
2023/07/24 04:40:49;;;;;;;0.10;0.10;;;;;;;14.39;85.55;100386.63;7356288;19;20006;-63
2023/07/24 04:43:14;;;;;;;0.10;0.10;;;;;;;14.40;85.04;100383.09;7358097;19;20018;-63
2023/07/24 04:45:40;;;;;;;0.10;0.10;;;;;;;14.42;84.91;100380.41;7353336;19;20026;-63
2023/07/24 04:48:05;;;;;;;0.10;0.10;;;;;;;14.43;84.88;100382.09;7355831;19;20798;-64
2023/07/24 04:50:31;;;;;;;0.10;0.10;;;;;;;14.37;84.87;100377.13;7354294;19;20015;-62
2023/07/24 04:52:56;;;;;;;0.10;0.10;;;;;;;14.45;84.76;100390.78;7353242;19;20042;-62
2023/07/24 04:55:22;;;;;;;0.10;0.10;;;;;;;14.45;84.67;100393.41;7353731;19;20121;-63
2023/07/24 04:57:48;;;;;;;0.10;0.10;;;;;;;14.45;84.91;100402.16;7353963;19;20038;-63
2023/07/24 05:00:14;;;;;;;0.10;0.10;;;;;;;14.45;84.61;100396.03;7356754;19;20049;-64
2023/07/24 05:02:39;;;;;;;0.10;0.10;;;;;;;14.44;84.87;100395.16;7354242;19;20034;-61
2023/07/24 05:05:05;;;;;;;0.10;0.10;;;;;;;14.25;84.46;100368.88;7357089;19;20466;-63
2023/07/24 05:07:30;;;;;;;0.10;0.10;;;;;;;14.41;84.60;100404.97;7351634;19;20883;-62
2023/07/24 05:09:56;;;;;;;0.05;0.05;;;;;;;14.39;84.58;100405.00;7356969;19;20006;-64
2023/07/24 05:12:21;;;;;;;0.10;0.10;;;;;;;14.36;84.22;100409.56;7352332;19;20033;-63
2023/07/24 05:14:47;;;;;;;0.10;0.10;;;;;;;14.35;84.42;100416.59;7357066;19;20021;-61
2023/07/24 05:17:12;;;;;;;0.10;0.10;;;;;;;14.26;84.15;100406.47;7353260;19;20054;-61
2023/07/24 05:19:37;;;;;;;0.10;0.10;;;;;;;14.17;83.85;100397.22;7357198;19;20021;-63
2023/07/24 05:22:03;;;;;;;0.00;0.00;;;;;;;14.26;83.86;100420.47;7355058;19;20117;-63
2023/07/24 05:24:29;;;;;;;0.10;0.10;;;;;;;14.24;84.10;100424.06;7356279;19;20346;-64
2023/07/24 05:26:54;;;;;;;0.10;0.10;;;;;;;14.19;84.19;100419.03;7357190;19;20039;-62
2023/07/24 05:29:19;;;;;;;0.10;0.10;;;;;;;14.17;84.02;100423.47;7352947;19;20018;-63
2023/07/24 05:31:45;;;;;;;0.10;0.10;;;;;;;14.17;84.11;100427.88;7353328;19;20024;-64
2023/07/24 05:34:10;;;;;;;0.10;0.10;;;;;;;14.12;84.40;100425.44;7354088;19;20014;-64
2023/07/24 05:36:36;;;;;;;0.00;0.00;;;;;;;14.14;84.20;100426.25;7356259;19;20026;-63
2023/07/24 05:39:01;;;;;;;0.10;0.10;;;;;;;14.09;84.32;100422.97;7349501;19;20018;-63
2023/07/24 05:41:27;;;;;;;0.00;0.00;;;;;;;14.10;84.37;100432.53;7355304;19;20016;-63
2023/07/24 05:43:52;;;;;;;0.00;0.00;;;;;;;14.08;84.29;100434.34;7349275;19;20011;-61
2023/07/24 05:46:17;;;;;;;0.10;0.10;;;;;;;14.08;84.21;100439.59;7355837;19;20371;-63
2023/07/24 05:48:43;;;;;;;0.10;0.10;;;;;;;14.08;84.72;100436.13;7348327;19;20017;-62
2023/07/24 05:51:08;;;;;;;0.10;0.10;;;;;;;14.08;84.52;100444.84;7362184;19;20099;-64
2023/07/24 05:53:33;;;;;;;0.03;0.03;;;;;;;14.09;84.72;100437.81;7357332;19;20027;-61
2023/07/24 05:56:00;;;;;;;0.00;0.00;;;;;;;14.10;84.74;100448.28;7359744;19;20011;-63
2023/07/24 05:58:26;;;;;;;0.10;0.10;;;;;;;14.10;84.52;100440.41;7358156;19;20018;-63
2023/07/24 06:00:51;;;;;;;0.00;0.00;;;;;;;14.12;84.54;100450.84;7360911;19;20055;-64
2023/07/24 06:03:17;;;;;;;0.10;0.10;;;;;;;14.08;84.93;100436.13;7356691;19;20556;-60
2023/07/24 06:05:42;;;;;;;0.10;0.10;;;;;;;14.14;84.51;100449.88;7359636;19;20018;-63
2023/07/24 06:08:11;;;;;;;0.00;0.00;;;;;;;14.16;84.53;100442.78;7360887;19;20054;-62
2023/07/24 06:10:37;;;;;;;0.00;0.00;;;;;;;14.03;84.46;100429.28;7357435;19;20014;-64
2023/07/24 06:13:02;;;;;;;0.10;0.10;;;;;;;14.20;84.78;100447.00;7357418;19;20740;-63
2023/07/24 06:15:28;;;;;;;0.10;0.10;;;;;;;14.22;85.15;100442.53;7356003;19;20045;-64
2023/07/24 06:17:53;;;;;;;0.00;0.00;;;;;;;14.25;84.89;100441.56;7358344;19;20014;-63
2023/07/24 06:20:19;;;;;;;0.10;0.10;;;;;;;14.32;85.32;100447.38;7360254;19;20546;-63
2023/07/24 06:22:44;;;;;;;0.10;0.10;;;;;;;14.36;85.28;100443.72;7359271;19;21025;-64
2023/07/24 06:25:09;;;;;;;0.03;0.03;;;;;;;14.43;85.17;100450.41;7360810;19;20028;-62
2023/07/24 06:27:35;;;;;;;0.10;0.10;;;;;;;14.50;85.18;100451.91;7354049;19;20041;-63
2023/07/24 06:30:00;;;;;;;0.00;0.00;;;;;;;14.56;85.04;100451.63;7359765;19;20014;-64
2023/07/24 06:32:26;;;;;;;0.10;0.10;;;;;;;14.63;84.88;100458.31;7355717;19;20014;-64
2023/07/24 06:34:51;;;;;;;0.00;0.00;;;;;;;14.69;84.70;100452.78;7359553;19;20006;-63
2023/07/24 06:37:16;;;;;;;0.00;0.00;;;;;;;14.78;85.03;100457.66;7352762;19;20168;-61
2023/07/24 06:39:43;;;;;;;0.10;0.10;;;;;;;14.87;84.61;100460.81;7360231;19;20010;-62
2023/07/24 06:42:08;;;;;;;0.10;0.10;;;;;;;14.79;84.52;100440.94;7353657;19;20484;-64
2023/07/24 06:44:34;;;;;;;0.10;0.10;;;;;;;15.01;84.20;100463.69;7359336;19;20014;-62
2023/07/24 06:46:59;;;;;;;0.10;0.10;;;;;;;15.07;84.17;100452.88;7358764;19;20010;-64
2023/07/24 06:49:25;;;;;;;0.00;0.00;;;;;;;15.11;83.83;100454.47;7355897;19;20022;-63
2023/07/24 06:51:50;;;;;;;0.05;0.05;;;;;;;15.02;83.69;100439.94;7360147;19;20039;-62
2023/07/24 06:54:16;;;;;;;0.10;0.10;;;;;;;15.16;83.79;100463.00;7355081;19;20030;-59
2023/07/24 06:56:41;;;;;;;0.10;0.10;;;;;;;15.19;83.43;100457.56;7360650;19;20014;-64
2023/07/24 06:59:06;;;;;;;0.10;0.10;;;;;;;15.19;83.71;100465.47;7357623;19;20036;-63
2023/07/24 07:01:32;;;;;;;0.10;0.10;;;;;;;15.22;83.32;100467.97;7358199;19;20050;-62
2023/07/24 07:03:57;;;;;;;0.10;0.10;;;;;;;15.21;83.41;100465.41;7356978;19;20731;-62
2023/07/24 07:06:23;;;;;;;0.10;0.10;;;;;;;15.22;83.35;100462.72;7359199;19;20014;-62
2023/07/24 07:08:48;;;;;;;0.10;0.10;;;;;;;15.23;83.62;100464.41;7354349;19;20010;-62
2023/07/24 07:11:13;;;;;;;0.10;0.10;;;;;;;15.26;83.59;100469.53;7357827;19;20054;-64
2023/07/24 07:13:39;;;;;;;0.10;0.10;;;;;;;15.29;83.46;100473.78;7355250;19;20006;-64
2023/07/24 07:16:04;;;;;;;0.00;0.00;;;;;;;15.32;83.78;100468.41;7355537;19;20010;-63
2023/07/24 07:18:30;;;;;;;0.10;0.10;;;;;;;15.30;83.88;100460.56;7353125;19;20022;-64
2023/07/24 07:20:55;;;;;;;0.00;0.00;;;;;;;15.45;83.97;100473.94;7357693;19;20027;-63
2023/07/24 07:23:21;;;;;;;0.10;0.10;;;;;;;15.53;83.74;100479.72;7358831;19;20013;-64
2023/07/24 07:25:47;;;;;;;0.08;0.08;;;;;;;15.60;83.97;100467.09;7359121;19;20010;-64
2023/07/24 07:28:16;;;;;;;0.10;0.10;;;;;;;15.73;83.65;100482.28;7352700;19;20011;-62
2023/07/24 07:30:42;;;;;;;0.10;0.10;;;;;;;15.85;83.53;100480.00;7355565;19;20081;-62
2023/07/24 07:33:08;;;;;;;0.10;0.10;;;;;;;15.97;83.14;100484.69;7350435;19;20534;-61
2023/07/24 07:35:34;;;;;;;0.10;0.10;;;;;;;16.08;83.20;100485.00;7355353;19;20038;-63
2023/07/24 07:38:00;;;;;;;0.10;0.10;;;;;;;16.19;82.56;100487.97;7353919;19;20393;-63
2023/07/24 07:40:26;;;;;;;0.10;0.10;;;;;;;16.19;82.80;100472.16;7354703;19;20007;-64
2023/07/24 07:42:53;;;;;;;0.00;0.00;;;;;;;16.42;82.38;100491.22;7358622;19;20041;-63
2023/07/24 07:45:18;;;;;;;0.10;0.10;;;;;;;16.51;82.07;100499.53;7357695;19;20554;-62
2023/07/24 07:47:44;;;;;;;0.10;0.10;;;;;;;16.60;81.66;100498.22;7359055;19;20022;-62
2023/07/24 07:50:10;;;;;;;0.10;0.10;;;;;;;16.69;81.41;100502.16;7351963;19;20838;-64
2023/07/24 07:52:35;;;;;;;0.10;0.10;;;;;;;16.76;81.10;100499.16;7330890;19;20024;-63
2023/07/24 07:55:01;;;;;;;0.03;0.03;;;;;;;16.83;81.31;100505.84;7355787;19;20028;-63
2023/07/24 07:57:26;;;;;;;0.10;0.10;;;;;;;16.90;80.88;100505.53;7358360;19;20469;-62
2023/07/24 07:59:51;;;;;;;0.10;0.10;;;;;;;16.95;80.70;100500.84;7354916;19;20889;-61
2023/07/24 08:02:17;;;;;;;0.00;0.00;;;;;;;17.02;80.48;100511.00;7351718;19;20033;-61
2023/07/24 08:04:42;;;;;;;0.10;0.10;;;;;;;17.08;80.81;100515.97;7358390;19;20010;-62
2023/07/24 08:07:07;;;;;;;0.10;0.10;;;;;;;17.17;80.44;100514.59;7346434;19;20026;-62
2023/07/24 08:09:33;;;;;;;0.10;0.10;;;;;;;17.25;80.40;100517.72;7352367;19;20011;-62
2023/07/24 08:11:59;;;;;;;0.10;0.10;;;;;;;17.35;80.22;100518.06;7352695;19;20020;-62
2023/07/24 08:14:24;;;;;;;0.10;0.10;;;;;;;17.44;80.33;100511.44;7353029;19;20073;-62
2023/07/24 08:16:50;;;;;;;0.10;0.10;;;;;;;17.46;79.93;100505.13;7337175;19;20014;-63
2023/07/24 08:19:16;;;;;;;0.10;0.10;;;;;;;17.61;79.83;100520.13;7355038;19;20017;-61
2023/07/24 08:21:41;;;;;;;0.00;0.00;;;;;;;17.71;79.42;100525.78;7352959;19;20077;-64
2023/07/24 08:24:07;;;;;;;0.10;0.10;;;;;;;17.75;79.03;100511.50;7351549;19;20014;-64
2023/07/24 08:26:32;;;;;;;0.10;0.10;;;;;;;17.92;79.28;100525.53;7354081;19;20014;-62
2023/07/24 08:28:58;;;;;;;0.10;0.10;;;;;;;18.01;78.88;100536.47;7350449;19;20022;-64
2023/07/24 08:31:23;;;;;;;0.10;0.10;;;;;;;18.12;78.55;100535.84;7349568;19;20025;-62
2023/07/24 08:33:49;;;;;;;0.10;0.10;;;;;;;18.20;78.54;100533.63;7354212;19;20010;-61
2023/07/24 08:36:15;;;;;;;0.10;0.10;;;;;;;18.22;78.53;100521.16;7348527;19;20033;-62
2023/07/24 08:38:42;;;;;;;0.10;0.10;;;;;;;18.37;78.17;100536.16;7354709;19;20082;-64
2023/07/24 08:41:12;;;;;;;0.10;0.10;;;;;;;18.51;78.39;100545.09;7355681;19;20007;-63
2023/07/24 08:43:40;;;;;;;0.05;0.05;;;;;;;18.41;78.13;100524.47;7356199;19;20018;-64
2023/07/24 08:46:06;;;;;;;0.10;0.10;;;;;;;18.56;77.68;100538.59;7353131;19;20010;-64
2023/07/24 08:48:37;;;;;;;0.10;0.10;;;;;;;18.68;78.28;100544.97;7354152;19;20015;-64
2023/07/24 08:51:11;;;;;;;0.10;0.10;;;;;;;18.69;77.36;100541.38;7356383;19;20077;-62
2023/07/24 08:53:38;;;;;;;0.00;0.00;;;;;;;18.76;77.18;100547.19;7357537;19;20081;-63
2023/07/24 08:56:05;;;;;;;0.10;0.10;;;;;;;18.83;77.20;100548.50;7343410;19;20030;-62
2023/07/24 08:58:31;;;;;;;0.10;0.10;;;;;;;18.89;77.25;100545.50;7331303;19;20021;-63
2023/07/24 09:00:57;;;;;;;0.10;0.10;;;;;;;18.97;76.82;100551.19;7344014;19;20097;-62
2023/07/24 09:03:23;;;;;;;0.10;0.10;;;;;;;19.05;77.20;100542.78;7347909;19;20366;-62
2023/07/24 09:05:49;;;;;;;0.10;0.10;;;;;;;19.11;76.61;100543.28;7348496;19;20006;-62
2023/07/24 09:08:14;;;;;;;0.10;0.10;;;;;;;19.16;76.46;100543.84;7351163;19;20127;-64
2023/07/24 09:10:40;;;;;;;0.03;0.03;;;;;;;19.24;76.69;100546.00;7347389;19;20047;-63
2023/07/24 09:13:06;;;;;;;0.10;0.10;;;;;;;19.31;76.30;100539.41;7352220;19;20863;-64
2023/07/24 09:15:44;;;;;;;0.10;0.10;;;;;;;19.48;77.55;100538.34;7350358;19;20018;-64
2023/07/24 09:18:10;;;;;;;0.10;0.10;;;;;;;19.49;76.15;100540.06;7352965;19;20464;-63
2023/07/24 09:20:40;;;;;;;0.00;0.00;;;;;;;19.64;76.70;100535.63;7351805;19;23115;-64
2023/07/24 09:23:08;;;;;;;0.10;0.10;;;;;;;19.59;76.05;100521.78;7348987;19;20014;-64
2023/07/24 09:25:34;;;;;;;0.10;0.10;;;;;;;19.81;76.16;100540.69;7355547;19;20023;-60
2023/07/24 09:28:00;;;;;;;0.10;0.10;;;;;;;19.90;75.48;100529.50;7357643;19;20010;-63
2023/07/24 09:30:25;;;;;;;0.10;0.10;;;;;;;20.19;75.01;100532.09;7353347;19;20046;-62
2023/07/24 09:32:54;;;;;;;0.10;0.10;;;;;;;20.46;74.82;100540.88;7359116;19;20062;-63
2023/07/24 09:35:20;;;;;;;0.10;0.10;;;;;;;20.62;73.73;100537.22;7351695;19;20025;-64
2023/07/24 09:37:46;;;;;;;0.10;0.10;;;;;;;20.79;72.96;100544.91;7359146;19;20982;-64
2023/07/24 09:40:15;;;;;;;0.10;0.10;;;;;;;20.94;73.39;100541.22;7356067;19;20042;-62
2023/07/24 09:42:40;;;;;;;0.10;0.10;;;;;;;20.92;72.75;100527.16;7356513;19;20037;-64
2023/07/24 09:45:08;;;;;;;0.03;0.03;;;;;;;21.12;72.66;100530.25;7356757;19;20015;-62
2023/07/24 09:47:34;;;;;;;0.10;0.10;;;;;;;21.24;72.32;100534.75;7357405;19;20048;-63
2023/07/24 09:50:03;;;;;;;0.17;0.17;;;;;;;21.44;72.61;100536.88;7358536;19;20369;-64
2023/07/24 09:52:30;;;;;;;0.00;0.00;;;;;;;21.52;72.25;100527.50;7353350;19;20822;-63
2023/07/24 09:55:01;;;;;;;0.10;0.10;;;;;;;21.89;72.05;100531.84;7356003;19;21159;-61
2023/07/24 09:57:28;;;;;;;0.10;0.10;;;;;;;22.17;71.22;100543.19;7354013;19;20445;-64
2023/07/24 09:59:56;;;;;;;0.10;0.10;;;;;;;22.48;70.97;100531.94;7357440;19;20021;-62
2023/07/24 10:02:23;;;;;;;0.10;0.10;;;;;;;22.77;69.67;100532.41;7353775;19;20375;-63
2023/07/24 10:04:49;;;;;;;0.10;0.10;;;;;;;23.11;67.97;100544.97;7358330;19;20018;-60
2023/07/24 10:07:15;;;;;;;0.10;0.10;;;;;;;23.38;66.27;100541.97;7353618;19;21039;-62
2023/07/24 10:09:43;;;;;;;0.10;0.10;;;;;;;23.69;67.74;100540.41;7354627;19;20753;-64
2023/07/24 10:12:09;;;;;;;0.00;0.00;;;;;;;23.92;66.76;100534.06;7350552;19;20002;-64
2023/07/24 10:14:35;;;;;;;0.00;0.00;;;;;;;24.21;66.85;100541.50;7360078;19;20010;-62
2023/07/24 10:17:01;;;;;;;0.10;0.10;;;;;;;24.47;66.46;100542.88;7355815;19;20074;-61
2023/07/24 10:19:44;;;;;;;0.00;0.00;;;;;;;24.92;68.67;100542.66;7358123;19;20117;-63
2023/07/24 10:22:18;;;;;;;0.00;0.00;;;;;;;25.22;66.31;100549.91;7354475;19;20014;-63
2023/07/24 10:24:44;;;;;;;0.00;0.00;;;;;;;25.28;64.53;100548.50;7358510;19;20015;-63
2023/07/24 10:27:11;;;;;;;0.10;0.10;;;;;;;25.40;64.12;100558.16;7354368;19;20757;-63
2023/07/24 10:29:36;;;;;;;0.10;0.10;;;;;;;25.42;63.77;100548.16;7358955;19;20018;-63
2023/07/24 10:32:02;;;;;;;0.10;0.10;;;;;;;25.40;63.50;100552.81;7352836;19;20015;-65
2023/07/24 10:34:38;;;;;;;0.08;0.08;;;;;;;25.41;64.80;100550.97;7353519;19;20009;-61
2023/07/24 10:37:07;;;;;;;0.10;0.10;;;;;;;25.13;65.08;100534.66;7356140;19;20014;-63
2023/07/24 10:39:39;;;;;;;0.00;0.00;;;;;;;25.08;63.68;100553.75;7353185;19;20023;-63
2023/07/24 10:42:09;;;;;;;0.10;0.10;;;;;;;24.83;62.99;100554.13;7353143;19;20014;-65
2023/07/24 10:44:35;;;;;;;0.10;0.10;;;;;;;24.66;65.97;100552.03;7354196;19;20433;-62
2023/07/24 10:47:01;;;;;;;0.10;0.10;;;;;;;24.50;67.09;100557.81;7353643;19;20010;-64
2023/07/24 10:49:26;;;;;;;0.10;0.10;;;;;;;24.43;66.46;100557.50;7328400;19;20006;-63
2023/07/24 10:51:56;;;;;;;0.10;0.10;;;;;;;24.54;67.53;100565.44;7340173;19;20635;-62
2023/07/24 10:54:22;;;;;;;0.10;0.10;;;;;;;24.57;64.30;100559.84;7338712;19;20011;-62
2023/07/24 10:56:47;;;;;;;0.10;0.10;;;;;;;24.69;67.28;100559.81;7339760;19;20751;-63
2023/07/24 10:59:14;;;;;;;0.10;0.10;;;;;;;24.82;67.22;100557.78;7341220;19;20094;-63
2023/07/24 11:01:40;;;;;;;;;;;;;;;25.15;72.07;100563.94;7348027;19;20027;-64
2023/07/24 11:04:05;;;;;;;0.10;0.10;;;;;;;25.12;67.83;100558.84;7344858;19;19919;-64
2023/07/24 11:06:31;;;;;;;0.00;0.00;;;;;;;25.22;67.24;100554.41;7343457;19;20834;-61
2023/07/24 11:09:00;;;;;;;0.10;0.10;;;;;;;25.35;68.91;100557.72;7345581;19;20997;-64
2023/07/24 11:11:34;;;;;;;0.10;0.10;;;;;;;25.37;69.37;100545.03;7345825;19;20010;-63
2023/07/24 11:14:03;;;;;;;0.10;0.10;;;;;;;25.39;67.39;100540.41;7344511;19;20014;-63
2023/07/24 11:16:31;;;;;;;0.00;0.00;;;;;;;25.56;67.62;100555.81;7341711;19;20006;-65
2023/07/24 11:18:56;;;;;;;0.03;0.03;;;;;;;25.87;67.75;100555.81;7346074;19;20486;-62
2023/07/24 11:21:25;;;;;;;0.10;0.10;;;;;;;26.35;66.50;100544.31;7335930;19;20034;-61